sensor_id;sensor_type;location;lat;lon;timestamp;P1;durP1;ratioP1;P2;durP2;ratioP2
73120;SDS011;61307;49.628;-1.624;2023-08-24T00:01:20;2.67;;;1.90;;
73120;SDS011;61307;49.628;-1.624;2023-08-24T00:03:47;4.45;;;2.38;;
73120;SDS011;61307;49.628;-1.624;2023-08-24T00:06:13;3.35;;;2.00;;
73120;SDS011;61307;49.628;-1.624;2023-08-24T00:08:41;2.65;;;1.80;;
73120;SDS011;61307;49.628;-1.624;2023-08-24T00:11:08;3.08;;;1.98;;
73120;SDS011;61307;49.628;-1.624;2023-08-24T00:13:39;3.38;;;2.28;;
73120;SDS011;61307;49.628;-1.624;2023-08-24T00:16:07;4.72;;;1.98;;
73120;SDS011;61307;49.628;-1.624;2023-08-24T00:18:36;2.35;;;1.80;;
73120;SDS011;61307;49.628;-1.624;2023-08-24T00:21:02;3.60;;;2.33;;
73120;SDS011;61307;49.628;-1.624;2023-08-24T00:23:29;3.95;;;2.28;;
73120;SDS011;61307;49.628;-1.624;2023-08-24T00:25:56;3.28;;;1.95;;
73120;SDS011;61307;49.628;-1.624;2023-08-24T00:28:23;3.63;;;1.92;;
73120;SDS011;61307;49.628;-1.624;2023-08-24T00:30:50;2.33;;;2.10;;
73120;SDS011;61307;49.628;-1.624;2023-08-24T00:33:17;3.35;;;2.25;;
73120;SDS011;61307;49.628;-1.624;2023-08-24T00:35:45;3.72;;;2.13;;
73120;SDS011;61307;49.628;-1.624;2023-08-24T00:38:13;2.30;;;2.00;;
73120;SDS011;61307;49.628;-1.624;2023-08-24T00:40:40;3.28;;;1.83;;
73120;SDS011;61307;49.628;-1.624;2023-08-24T00:43:08;3.35;;;2.08;;
73120;SDS011;61307;49.628;-1.624;2023-08-24T00:45:35;2.92;;;1.90;;
73120;SDS011;61307;49.628;-1.624;2023-08-24T00:48:02;3.63;;;1.85;;
73120;SDS011;61307;49.628;-1.624;2023-08-24T00:50:30;5.97;;;2.25;;
73120;SDS011;61307;49.628;-1.624;2023-08-24T00:52:58;3.30;;;2.10;;
73120;SDS011;61307;49.628;-1.624;2023-08-24T00:55:25;4.65;;;2.40;;
73120;SDS011;61307;49.628;-1.624;2023-08-24T00:57:53;3.83;;;2.13;;
73120;SDS011;61307;49.628;-1.624;2023-08-24T01:00:21;3.42;;;2.20;;
73120;SDS011;61307;49.628;-1.624;2023-08-24T01:02:48;3.20;;;2.25;;
73120;SDS011;61307;49.628;-1.624;2023-08-24T01:05:15;3.42;;;2.65;;
73120;SDS011;61307;49.628;-1.624;2023-08-24T01:07:42;3.75;;;1.95;;
73120;SDS011;61307;49.628;-1.624;2023-08-24T01:10:10;4.88;;;2.08;;
73120;SDS011;61307;49.628;-1.624;2023-08-24T01:12:42;3.88;;;2.20;;
73120;SDS011;61307;49.628;-1.624;2023-08-24T01:15:17;5.07;;;2.10;;
73120;SDS011;61307;49.628;-1.624;2023-08-24T01:17:52;3.78;;;2.10;;
73120;SDS011;61307;49.628;-1.624;2023-08-24T01:20:21;2.83;;;1.80;;
73120;SDS011;61307;49.628;-1.624;2023-08-24T01:22:51;4.63;;;1.73;;
73120;SDS011;61307;49.628;-1.624;2023-08-24T01:25:31;2.95;;;2.00;;
73120;SDS011;61307;49.628;-1.624;2023-08-24T01:28:05;3.85;;;2.05;;
73120;SDS011;61307;49.628;-1.624;2023-08-24T01:30:33;4.22;;;1.90;;
73120;SDS011;61307;49.628;-1.624;2023-08-24T01:33:02;4.13;;;2.63;;
73120;SDS011;61307;49.628;-1.624;2023-08-24T01:35:29;6.70;;;2.38;;
73120;SDS011;61307;49.628;-1.624;2023-08-24T01:37:57;3.47;;;2.10;;
73120;SDS011;61307;49.628;-1.624;2023-08-24T01:40:30;2.95;;;2.08;;
73120;SDS011;61307;49.628;-1.624;2023-08-24T01:43:05;2.75;;;1.85;;
73120;SDS011;61307;49.628;-1.624;2023-08-24T01:45:35;3.25;;;1.92;;
73120;SDS011;61307;49.628;-1.624;2023-08-24T01:48:03;5.72;;;2.47;;
73120;SDS011;61307;49.628;-1.624;2023-08-24T01:50:31;4.00;;;1.98;;
73120;SDS011;61307;49.628;-1.624;2023-08-24T01:52:58;2.60;;;2.08;;
73120;SDS011;61307;49.628;-1.624;2023-08-24T01:55:26;4.10;;;2.22;;
73120;SDS011;61307;49.628;-1.624;2023-08-24T01:57:54;3.45;;;2.10;;
73120;SDS011;61307;49.628;-1.624;2023-08-24T02:00:23;2.28;;;1.90;;
73120;SDS011;61307;49.628;-1.624;2023-08-24T02:02:50;3.20;;;2.25;;
73120;SDS011;61307;49.628;-1.624;2023-08-24T02:05:17;4.82;;;1.92;;
73120;SDS011;61307;49.628;-1.624;2023-08-24T02:07:44;3.50;;;2.17;;
73120;SDS011;61307;49.628;-1.624;2023-08-24T02:10:10;4.07;;;1.95;;
73120;SDS011;61307;49.628;-1.624;2023-08-24T02:12:37;2.00;;;1.80;;
73120;SDS011;61307;49.628;-1.624;2023-08-24T02:15:05;5.65;;;2.42;;
73120;SDS011;61307;49.628;-1.624;2023-08-24T02:17:34;2.65;;;1.92;;
73120;SDS011;61307;49.628;-1.624;2023-08-24T02:20:01;3.35;;;1.88;;
73120;SDS011;61307;49.628;-1.624;2023-08-24T02:22:28;3.05;;;2.00;;
73120;SDS011;61307;49.628;-1.624;2023-08-24T02:24:55;3.40;;;1.95;;
73120;SDS011;61307;49.628;-1.624;2023-08-24T02:27:22;2.45;;;2.00;;
73120;SDS011;61307;49.628;-1.624;2023-08-24T02:29:49;4.40;;;1.90;;
73120;SDS011;61307;49.628;-1.624;2023-08-24T02:32:16;3.55;;;2.10;;
73120;SDS011;61307;49.628;-1.624;2023-08-24T02:34:44;2.92;;;2.17;;
73120;SDS011;61307;49.628;-1.624;2023-08-24T02:37:11;2.97;;;1.90;;
73120;SDS011;61307;49.628;-1.624;2023-08-24T02:39:37;2.10;;;1.90;;
73120;SDS011;61307;49.628;-1.624;2023-08-24T02:42:04;2.50;;;1.80;;
73120;SDS011;61307;49.628;-1.624;2023-08-24T02:44:31;2.70;;;2.00;;
73120;SDS011;61307;49.628;-1.624;2023-08-24T02:46:58;2.97;;;2.10;;
73120;SDS011;61307;49.628;-1.624;2023-08-24T02:49:25;5.20;;;2.53;;
73120;SDS011;61307;49.628;-1.624;2023-08-24T02:51:53;3.67;;;2.15;;
73120;SDS011;61307;49.628;-1.624;2023-08-24T02:54:20;2.70;;;2.22;;
73120;SDS011;61307;49.628;-1.624;2023-08-24T02:56:47;3.83;;;1.85;;
73120;SDS011;61307;49.628;-1.624;2023-08-24T02:59:14;4.20;;;2.00;;
73120;SDS011;61307;49.628;-1.624;2023-08-24T03:01:41;3.25;;;1.95;;
73120;SDS011;61307;49.628;-1.624;2023-08-24T03:04:07;3.65;;;2.10;;
73120;SDS011;61307;49.628;-1.624;2023-08-24T03:06:34;3.15;;;1.83;;
73120;SDS011;61307;49.628;-1.624;2023-08-24T03:09:02;2.65;;;1.90;;
73120;SDS011;61307;49.628;-1.624;2023-08-24T03:11:29;3.85;;;1.85;;
73120;SDS011;61307;49.628;-1.624;2023-08-24T03:13:56;3.15;;;1.98;;
73120;SDS011;61307;49.628;-1.624;2023-08-24T03:16:23;3.42;;;1.85;;
73120;SDS011;61307;49.628;-1.624;2023-08-24T03:18:50;4.32;;;2.00;;
73120;SDS011;61307;49.628;-1.624;2023-08-24T03:21:17;3.08;;;1.90;;
73120;SDS011;61307;49.628;-1.624;2023-08-24T03:23:44;2.92;;;2.20;;
73120;SDS011;61307;49.628;-1.624;2023-08-24T03:26:12;2.97;;;2.20;;
73120;SDS011;61307;49.628;-1.624;2023-08-24T03:28:39;2.75;;;1.88;;
73120;SDS011;61307;49.628;-1.624;2023-08-24T03:31:06;4.00;;;2.30;;
73120;SDS011;61307;49.628;-1.624;2023-08-24T03:33:33;3.25;;;2.20;;
73120;SDS011;61307;49.628;-1.624;2023-08-24T03:36:00;3.55;;;2.00;;
73120;SDS011;61307;49.628;-1.624;2023-08-24T03:38:28;2.78;;;1.60;;
73120;SDS011;61307;49.628;-1.624;2023-08-24T03:40:59;2.60;;;1.77;;
73120;SDS011;61307;49.628;-1.624;2023-08-24T03:43:30;6.93;;;1.70;;
73120;SDS011;61307;49.628;-1.624;2023-08-24T03:45:58;2.38;;;1.85;;
73120;SDS011;61307;49.628;-1.624;2023-08-24T03:48:25;4.45;;;1.80;;
73120;SDS011;61307;49.628;-1.624;2023-08-24T03:50:53;2.53;;;1.83;;
73120;SDS011;61307;49.628;-1.624;2023-08-24T03:53:20;2.58;;;1.85;;
73120;SDS011;61307;49.628;-1.624;2023-08-24T03:55:47;3.45;;;2.28;;
73120;SDS011;61307;49.628;-1.624;2023-08-24T03:58:14;3.53;;;2.05;;
73120;SDS011;61307;49.628;-1.624;2023-08-24T04:00:43;4.18;;;2.10;;
73120;SDS011;61307;49.628;-1.624;2023-08-24T04:03:10;2.72;;;1.80;;
73120;SDS011;61307;49.628;-1.624;2023-08-24T04:05:37;2.80;;;1.90;;
73120;SDS011;61307;49.628;-1.624;2023-08-24T04:08:05;4.28;;;1.90;;
73120;SDS011;61307;49.628;-1.624;2023-08-24T04:10:32;3.78;;;1.90;;
73120;SDS011;61307;49.628;-1.624;2023-08-24T04:12:59;3.13;;;2.00;;
73120;SDS011;61307;49.628;-1.624;2023-08-24T04:15:26;3.30;;;2.00;;
73120;SDS011;61307;49.628;-1.624;2023-08-24T04:17:54;5.78;;;2.05;;
73120;SDS011;61307;49.628;-1.624;2023-08-24T04:20:21;2.90;;;1.80;;
73120;SDS011;61307;49.628;-1.624;2023-08-24T04:22:48;2.30;;;1.80;;
73120;SDS011;61307;49.628;-1.624;2023-08-24T04:25:15;2.80;;;2.10;;
73120;SDS011;61307;49.628;-1.624;2023-08-24T04:27:42;2.92;;;1.92;;
73120;SDS011;61307;49.628;-1.624;2023-08-24T04:30:09;2.88;;;1.95;;
73120;SDS011;61307;49.628;-1.624;2023-08-24T04:32:37;2.53;;;2.00;;
73120;SDS011;61307;49.628;-1.624;2023-08-24T04:35:06;3.78;;;1.92;;
73120;SDS011;61307;49.628;-1.624;2023-08-24T04:37:33;3.35;;;2.05;;
73120;SDS011;61307;49.628;-1.624;2023-08-24T04:40:00;2.38;;;1.90;;
73120;SDS011;61307;49.628;-1.624;2023-08-24T04:42:29;3.25;;;2.00;;
73120;SDS011;61307;49.628;-1.624;2023-08-24T04:44:56;3.53;;;2.03;;
73120;SDS011;61307;49.628;-1.624;2023-08-24T04:47:23;4.13;;;2.20;;
73120;SDS011;61307;49.628;-1.624;2023-08-24T04:49:50;2.30;;;1.95;;
73120;SDS011;61307;49.628;-1.624;2023-08-24T04:52:18;3.63;;;2.42;;
73120;SDS011;61307;49.628;-1.624;2023-08-24T04:54:45;2.65;;;1.88;;
73120;SDS011;61307;49.628;-1.624;2023-08-24T04:57:11;5.78;;;2.35;;
73120;SDS011;61307;49.628;-1.624;2023-08-24T04:59:39;3.60;;;2.20;;
73120;SDS011;61307;49.628;-1.624;2023-08-24T05:02:05;4.30;;;2.03;;
73120;SDS011;61307;49.628;-1.624;2023-08-24T05:04:33;2.78;;;1.98;;
73120;SDS011;61307;49.628;-1.624;2023-08-24T05:06:59;2.70;;;2.20;;
73120;SDS011;61307;49.628;-1.624;2023-08-24T05:09:28;3.10;;;2.00;;
73120;SDS011;61307;49.628;-1.624;2023-08-24T05:11:54;4.97;;;1.98;;
73120;SDS011;61307;49.628;-1.624;2023-08-24T05:14:21;2.80;;;2.17;;
73120;SDS011;61307;49.628;-1.624;2023-08-24T05:16:48;3.92;;;2.05;;
73120;SDS011;61307;49.628;-1.624;2023-08-24T05:19:15;2.40;;;1.73;;
73120;SDS011;61307;49.628;-1.624;2023-08-24T05:21:42;3.50;;;1.90;;
73120;SDS011;61307;49.628;-1.624;2023-08-24T05:24:08;2.92;;;2.28;;
73120;SDS011;61307;49.628;-1.624;2023-08-24T05:26:37;3.30;;;2.03;;
73120;SDS011;61307;49.628;-1.624;2023-08-24T05:29:03;2.47;;;1.80;;
73120;SDS011;61307;49.628;-1.624;2023-08-24T05:31:31;2.08;;;1.88;;
73120;SDS011;61307;49.628;-1.624;2023-08-24T05:33:58;4.13;;;2.00;;
73120;SDS011;61307;49.628;-1.624;2023-08-24T05:36:25;5.50;;;2.28;;
73120;SDS011;61307;49.628;-1.624;2023-08-24T05:38:52;3.85;;;2.20;;
73120;SDS011;61307;49.628;-1.624;2023-08-24T05:41:21;4.30;;;2.25;;
73120;SDS011;61307;49.628;-1.624;2023-08-24T05:43:49;2.53;;;1.90;;
73120;SDS011;61307;49.628;-1.624;2023-08-24T05:46:17;3.88;;;2.20;;
73120;SDS011;61307;49.628;-1.624;2023-08-24T05:48:44;3.03;;;2.05;;
73120;SDS011;61307;49.628;-1.624;2023-08-24T05:51:11;2.70;;;2.17;;
73120;SDS011;61307;49.628;-1.624;2023-08-24T05:53:38;2.92;;;1.90;;
73120;SDS011;61307;49.628;-1.624;2023-08-24T05:56:05;2.20;;;1.80;;
73120;SDS011;61307;49.628;-1.624;2023-08-24T05:58:32;3.05;;;2.20;;
73120;SDS011;61307;49.628;-1.624;2023-08-24T06:01:01;2.72;;;2.13;;
73120;SDS011;61307;49.628;-1.624;2023-08-24T06:03:27;4.85;;;2.25;;
73120;SDS011;61307;49.628;-1.624;2023-08-24T06:06:00;4.78;;;2.00;;
73120;SDS011;61307;49.628;-1.624;2023-08-24T06:08:28;3.55;;;2.28;;
73120;SDS011;61307;49.628;-1.624;2023-08-24T06:10:55;3.70;;;2.25;;
73120;SDS011;61307;49.628;-1.624;2023-08-24T06:13:22;3.95;;;2.00;;
73120;SDS011;61307;49.628;-1.624;2023-08-24T06:15:49;4.07;;;2.15;;
73120;SDS011;61307;49.628;-1.624;2023-08-24T06:18:17;3.03;;;2.30;;
73120;SDS011;61307;49.628;-1.624;2023-08-24T06:20:44;4.70;;;2.70;;
73120;SDS011;61307;49.628;-1.624;2023-08-24T06:23:14;3.45;;;2.40;;
73120;SDS011;61307;49.628;-1.624;2023-08-24T06:25:41;4.93;;;2.40;;
73120;SDS011;61307;49.628;-1.624;2023-08-24T06:28:08;3.03;;;2.60;;
73120;SDS011;61307;49.628;-1.624;2023-08-24T06:30:36;4.55;;;2.58;;
73120;SDS011;61307;49.628;-1.624;2023-08-24T06:33:04;3.97;;;2.53;;
73120;SDS011;61307;49.628;-1.624;2023-08-24T06:35:34;3.10;;;2.30;;
73120;SDS011;61307;49.628;-1.624;2023-08-24T06:38:01;3.90;;;2.38;;
73120;SDS011;61307;49.628;-1.624;2023-08-24T06:40:28;2.97;;;2.40;;
73120;SDS011;61307;49.628;-1.624;2023-08-24T06:42:56;6.03;;;2.45;;
73120;SDS011;61307;49.628;-1.624;2023-08-24T06:45:23;3.75;;;2.28;;
73120;SDS011;61307;49.628;-1.624;2023-08-24T06:47:50;4.38;;;2.45;;
73120;SDS011;61307;49.628;-1.624;2023-08-24T06:50:17;3.25;;;2.38;;
73120;SDS011;61307;49.628;-1.624;2023-08-24T06:52:46;3.25;;;2.47;;
73120;SDS011;61307;49.628;-1.624;2023-08-24T06:55:13;3.25;;;2.42;;
73120;SDS011;61307;49.628;-1.624;2023-08-24T06:57:41;4.03;;;2.50;;
73120;SDS011;61307;49.628;-1.624;2023-08-24T07:00:08;3.22;;;2.15;;
73120;SDS011;61307;49.628;-1.624;2023-08-24T07:02:38;4.13;;;2.40;;
73120;SDS011;61307;49.628;-1.624;2023-08-24T07:05:05;6.07;;;2.60;;
73120;SDS011;61307;49.628;-1.624;2023-08-24T07:07:33;4.22;;;2.65;;
73120;SDS011;61307;49.628;-1.624;2023-08-24T07:10:02;4.25;;;2.85;;
73120;SDS011;61307;49.628;-1.624;2023-08-24T07:12:31;3.67;;;2.55;;
73120;SDS011;61307;49.628;-1.624;2023-08-24T07:14:59;6.38;;;2.97;;
73120;SDS011;61307;49.628;-1.624;2023-08-24T07:17:27;4.07;;;2.70;;
73120;SDS011;61307;49.628;-1.624;2023-08-24T07:19:54;4.13;;;2.28;;
73120;SDS011;61307;49.628;-1.624;2023-08-24T07:22:21;3.53;;;2.40;;
73120;SDS011;61307;49.628;-1.624;2023-08-24T07:24:48;3.90;;;2.80;;
73120;SDS011;61307;49.628;-1.624;2023-08-24T07:27:18;6.53;;;2.45;;
73120;SDS011;61307;49.628;-1.624;2023-08-24T07:29:46;3.65;;;2.30;;
73120;SDS011;61307;49.628;-1.624;2023-08-24T07:32:13;3.90;;;2.30;;
73120;SDS011;61307;49.628;-1.624;2023-08-24T07:34:40;4.80;;;2.70;;
73120;SDS011;61307;49.628;-1.624;2023-08-24T07:37:07;4.18;;;2.42;;
73120;SDS011;61307;49.628;-1.624;2023-08-24T07:39:34;4.38;;;2.50;;
73120;SDS011;61307;49.628;-1.624;2023-08-24T07:42:01;5.32;;;2.80;;
73120;SDS011;61307;49.628;-1.624;2023-08-24T07:44:29;3.35;;;2.72;;
73120;SDS011;61307;49.628;-1.624;2023-08-24T07:46:56;4.25;;;2.35;;
73120;SDS011;61307;49.628;-1.624;2023-08-24T07:49:23;4.90;;;2.42;;
73120;SDS011;61307;49.628;-1.624;2023-08-24T07:51:50;4.82;;;2.85;;
73120;SDS011;61307;49.628;-1.624;2023-08-24T07:54:18;5.43;;;2.63;;
73120;SDS011;61307;49.628;-1.624;2023-08-24T07:56:45;4.00;;;2.50;;
73120;SDS011;61307;49.628;-1.624;2023-08-24T07:59:12;3.38;;;2.45;;
73120;SDS011;61307;49.628;-1.624;2023-08-24T08:01:40;3.03;;;2.38;;
73120;SDS011;61307;49.628;-1.624;2023-08-24T08:04:07;3.47;;;2.30;;
73120;SDS011;61307;49.628;-1.624;2023-08-24T08:06:34;4.93;;;2.60;;
73120;SDS011;61307;49.628;-1.624;2023-08-24T08:09:01;4.70;;;2.40;;
73120;SDS011;61307;49.628;-1.624;2023-08-24T08:11:28;4.95;;;2.80;;
73120;SDS011;61307;49.628;-1.624;2023-08-24T08:13:55;3.10;;;2.00;;
73120;SDS011;61307;49.628;-1.624;2023-08-24T08:16:22;3.40;;;2.50;;
73120;SDS011;61307;49.628;-1.624;2023-08-24T08:18:51;3.33;;;2.10;;
73120;SDS011;61307;49.628;-1.624;2023-08-24T08:21:18;3.38;;;2.08;;
73120;SDS011;61307;49.628;-1.624;2023-08-24T08:23:45;5.55;;;2.40;;
73120;SDS011;61307;49.628;-1.624;2023-08-24T08:26:12;6.25;;;2.47;;
73120;SDS011;61307;49.628;-1.624;2023-08-24T08:28:39;3.65;;;2.38;;
73120;SDS011;61307;49.628;-1.624;2023-08-24T08:31:06;4.25;;;2.80;;
73120;SDS011;61307;49.628;-1.624;2023-08-24T08:33:33;2.75;;;2.40;;
73120;SDS011;61307;49.628;-1.624;2023-08-24T08:36:01;3.55;;;2.60;;
73120;SDS011;61307;49.628;-1.624;2023-08-24T08:38:29;4.35;;;2.60;;
73120;SDS011;61307;49.628;-1.624;2023-08-24T08:41:02;5.18;;;2.38;;
73120;SDS011;61307;49.628;-1.624;2023-08-24T08:43:29;3.70;;;2.22;;
73120;SDS011;61307;49.628;-1.624;2023-08-24T08:45:56;5.22;;;2.30;;
73120;SDS011;61307;49.628;-1.624;2023-08-24T08:48:25;6.80;;;2.78;;
73120;SDS011;61307;49.628;-1.624;2023-08-24T08:50:54;3.15;;;2.13;;
73120;SDS011;61307;49.628;-1.624;2023-08-24T08:53:23;4.15;;;2.75;;
73120;SDS011;61307;49.628;-1.624;2023-08-24T08:55:51;4.25;;;2.30;;
73120;SDS011;61307;49.628;-1.624;2023-08-24T08:58:19;5.78;;;2.75;;
73120;SDS011;61307;49.628;-1.624;2023-08-24T09:00:46;4.05;;;2.70;;
73120;SDS011;61307;49.628;-1.624;2023-08-24T09:03:14;4.10;;;2.47;;
73120;SDS011;61307;49.628;-1.624;2023-08-24T09:05:43;5.07;;;2.30;;
73120;SDS011;61307;49.628;-1.624;2023-08-24T09:08:13;6.60;;;2.80;;
73120;SDS011;61307;49.628;-1.624;2023-08-24T09:10:42;5.00;;;2.70;;
73120;SDS011;61307;49.628;-1.624;2023-08-24T09:13:09;4.05;;;2.60;;
73120;SDS011;61307;49.628;-1.624;2023-08-24T09:15:37;8.80;;;3.00;;
73120;SDS011;61307;49.628;-1.624;2023-08-24T09:18:04;6.35;;;2.20;;
73120;SDS011;61307;49.628;-1.624;2023-08-24T09:20:31;4.70;;;2.47;;
73120;SDS011;61307;49.628;-1.624;2023-08-24T09:22:58;4.20;;;2.45;;
73120;SDS011;61307;49.628;-1.624;2023-08-24T09:25:25;4.72;;;2.60;;
73120;SDS011;61307;49.628;-1.624;2023-08-24T09:28:00;3.60;;;2.50;;
73120;SDS011;61307;49.628;-1.624;2023-08-24T09:30:29;3.80;;;2.22;;
73120;SDS011;61307;49.628;-1.624;2023-08-24T09:33:00;4.82;;;2.30;;
73120;SDS011;61307;49.628;-1.624;2023-08-24T09:35:28;6.38;;;2.60;;
73120;SDS011;61307;49.628;-1.624;2023-08-24T09:37:55;4.35;;;2.42;;
73120;SDS011;61307;49.628;-1.624;2023-08-24T09:40:25;4.72;;;2.78;;
73120;SDS011;61307;49.628;-1.624;2023-08-24T09:42:52;6.10;;;2.72;;
73120;SDS011;61307;49.628;-1.624;2023-08-24T09:45:20;5.53;;;2.22;;
73120;SDS011;61307;49.628;-1.624;2023-08-24T09:47:50;4.68;;;2.55;;
73120;SDS011;61307;49.628;-1.624;2023-08-24T09:50:18;6.88;;;2.63;;
73120;SDS011;61307;49.628;-1.624;2023-08-24T09:52:45;5.18;;;2.38;;
73120;SDS011;61307;49.628;-1.624;2023-08-24T09:55:15;9.57;;;2.72;;
73120;SDS011;61307;49.628;-1.624;2023-08-24T09:57:47;7.35;;;2.50;;
73120;SDS011;61307;49.628;-1.624;2023-08-24T10:00:18;12.50;;;2.80;;
73120;SDS011;61307;49.628;-1.624;2023-08-24T10:02:49;6.97;;;2.70;;
73120;SDS011;61307;49.628;-1.624;2023-08-24T10:05:19;9.10;;;2.67;;
73120;SDS011;61307;49.628;-1.624;2023-08-24T10:07:47;3.30;;;2.50;;
73120;SDS011;61307;49.628;-1.624;2023-08-24T10:10:17;7.32;;;3.17;;
73120;SDS011;61307;49.628;-1.624;2023-08-24T10:12:50;4.00;;;2.42;;
73120;SDS011;61307;49.628;-1.624;2023-08-24T10:15:20;4.57;;;2.53;;
73120;SDS011;61307;49.628;-1.624;2023-08-24T10:17:48;5.28;;;2.28;;
73120;SDS011;61307;49.628;-1.624;2023-08-24T10:20:17;6.55;;;3.00;;
73120;SDS011;61307;49.628;-1.624;2023-08-24T10:22:45;4.97;;;2.90;;
73120;SDS011;61307;49.628;-1.624;2023-08-24T10:25:14;7.35;;;2.72;;
73120;SDS011;61307;49.628;-1.624;2023-08-24T10:27:44;4.80;;;2.55;;
73120;SDS011;61307;49.628;-1.624;2023-08-24T10:30:13;5.50;;;2.88;;
73120;SDS011;61307;49.628;-1.624;2023-08-24T10:32:42;4.20;;;2.55;;
73120;SDS011;61307;49.628;-1.624;2023-08-24T10:35:10;5.35;;;2.80;;
73120;SDS011;61307;49.628;-1.624;2023-08-24T10:37:40;10.38;;;3.00;;
73120;SDS011;61307;49.628;-1.624;2023-08-24T10:40:10;7.38;;;3.03;;
73120;SDS011;61307;49.628;-1.624;2023-08-24T10:42:43;7.63;;;2.80;;
73120;SDS011;61307;49.628;-1.624;2023-08-24T10:45:11;6.10;;;2.83;;
73120;SDS011;61307;49.628;-1.624;2023-08-24T10:47:51;5.70;;;2.88;;
73120;SDS011;61307;49.628;-1.624;2023-08-24T10:50:19;5.50;;;3.15;;
73120;SDS011;61307;49.628;-1.624;2023-08-24T10:52:48;6.00;;;2.92;;
73120;SDS011;61307;49.628;-1.624;2023-08-24T10:55:21;4.32;;;2.80;;
73120;SDS011;61307;49.628;-1.624;2023-08-24T10:57:55;3.58;;;2.30;;
73120;SDS011;61307;49.628;-1.624;2023-08-24T11:00:24;4.75;;;2.95;;
73120;SDS011;61307;49.628;-1.624;2023-08-24T11:02:53;5.75;;;2.90;;
73120;SDS011;61307;49.628;-1.624;2023-08-24T11:05:21;6.85;;;3.03;;
73120;SDS011;61307;49.628;-1.624;2023-08-24T11:07:50;3.42;;;2.50;;
73120;SDS011;61307;49.628;-1.624;2023-08-24T11:10:21;5.80;;;2.78;;
73120;SDS011;61307;49.628;-1.624;2023-08-24T11:13:05;10.07;;;2.95;;
73120;SDS011;61307;49.628;-1.624;2023-08-24T11:15:33;5.65;;;2.80;;
73120;SDS011;61307;49.628;-1.624;2023-08-24T11:18:14;3.97;;;2.65;;
73120;SDS011;61307;49.628;-1.624;2023-08-24T11:20:46;7.05;;;2.92;;
73120;SDS011;61307;49.628;-1.624;2023-08-24T11:23:14;6.60;;;2.90;;
73120;SDS011;61307;49.628;-1.624;2023-08-24T11:25:42;3.88;;;2.63;;
73120;SDS011;61307;49.628;-1.624;2023-08-24T11:28:09;4.20;;;2.50;;
73120;SDS011;61307;49.628;-1.624;2023-08-24T11:30:36;5.32;;;3.00;;
73120;SDS011;61307;49.628;-1.624;2023-08-24T11:33:04;3.35;;;2.35;;
73120;SDS011;61307;49.628;-1.624;2023-08-24T11:35:36;4.75;;;2.45;;
73120;SDS011;61307;49.628;-1.624;2023-08-24T11:38:03;4.07;;;2.45;;
73120;SDS011;61307;49.628;-1.624;2023-08-24T11:40:30;6.22;;;2.72;;
73120;SDS011;61307;49.628;-1.624;2023-08-24T11:42:57;6.65;;;2.78;;
73120;SDS011;61307;49.628;-1.624;2023-08-24T11:45:24;3.88;;;2.63;;
73120;SDS011;61307;49.628;-1.624;2023-08-24T11:47:57;7.35;;;2.70;;
73120;SDS011;61307;49.628;-1.624;2023-08-24T11:50:25;5.22;;;2.47;;
73120;SDS011;61307;49.628;-1.624;2023-08-24T11:52:54;5.53;;;2.65;;
73120;SDS011;61307;49.628;-1.624;2023-08-24T11:55:21;5.40;;;2.60;;
73120;SDS011;61307;49.628;-1.624;2023-08-24T11:57:48;4.85;;;2.60;;
73120;SDS011;61307;49.628;-1.624;2023-08-24T12:00:14;6.55;;;2.63;;
73120;SDS011;61307;49.628;-1.624;2023-08-24T12:02:43;6.15;;;2.53;;
73120;SDS011;61307;49.628;-1.624;2023-08-24T12:05:19;5.45;;;2.78;;
73120;SDS011;61307;49.628;-1.624;2023-08-24T12:07:49;6.65;;;2.90;;
73120;SDS011;61307;49.628;-1.624;2023-08-24T12:10:20;6.45;;;2.72;;
73120;SDS011;61307;49.628;-1.624;2023-08-24T12:12:47;4.85;;;2.83;;
73120;SDS011;61307;49.628;-1.624;2023-08-24T12:15:27;5.20;;;2.88;;
73120;SDS011;61307;49.628;-1.624;2023-08-24T12:17:55;5.82;;;2.75;;
73120;SDS011;61307;49.628;-1.624;2023-08-24T12:20:22;8.73;;;2.70;;
73120;SDS011;61307;49.628;-1.624;2023-08-24T12:22:50;5.03;;;2.67;;
73120;SDS011;61307;49.628;-1.624;2023-08-24T12:25:19;7.03;;;2.85;;
73120;SDS011;61307;49.628;-1.624;2023-08-24T12:27:48;7.70;;;2.90;;
73120;SDS011;61307;49.628;-1.624;2023-08-24T12:30:15;7.70;;;3.67;;
73120;SDS011;61307;49.628;-1.624;2023-08-24T12:32:42;7.65;;;2.92;;
73120;SDS011;61307;49.628;-1.624;2023-08-24T12:35:10;6.25;;;2.78;;
73120;SDS011;61307;49.628;-1.624;2023-08-24T12:37:37;7.03;;;2.85;;
73120;SDS011;61307;49.628;-1.624;2023-08-24T12:40:05;9.90;;;2.67;;
73120;SDS011;61307;49.628;-1.624;2023-08-24T12:42:34;7.25;;;2.53;;
73120;SDS011;61307;49.628;-1.624;2023-08-24T12:45:02;6.75;;;2.70;;
73120;SDS011;61307;49.628;-1.624;2023-08-24T12:47:29;10.65;;;3.08;;
73120;SDS011;61307;49.628;-1.624;2023-08-24T12:49:56;4.88;;;2.70;;
73120;SDS011;61307;49.628;-1.624;2023-08-24T12:52:23;5.30;;;2.95;;
73120;SDS011;61307;49.628;-1.624;2023-08-24T12:54:51;7.43;;;3.00;;
73120;SDS011;61307;49.628;-1.624;2023-08-24T12:57:18;6.07;;;2.83;;
73120;SDS011;61307;49.628;-1.624;2023-08-24T12:59:46;8.02;;;3.05;;
73120;SDS011;61307;49.628;-1.624;2023-08-24T13:02:13;8.23;;;3.08;;
73120;SDS011;61307;49.628;-1.624;2023-08-24T13:04:40;7.13;;;2.58;;
73120;SDS011;61307;49.628;-1.624;2023-08-24T13:07:07;7.40;;;2.78;;
73120;SDS011;61307;49.628;-1.624;2023-08-24T13:09:34;10.48;;;2.88;;
73120;SDS011;61307;49.628;-1.624;2023-08-24T13:12:01;9.07;;;3.40;;
73120;SDS011;61307;49.628;-1.624;2023-08-24T13:14:28;6.68;;;3.10;;
73120;SDS011;61307;49.628;-1.624;2023-08-24T13:16:57;8.13;;;2.83;;
73120;SDS011;61307;49.628;-1.624;2023-08-24T13:19:24;7.25;;;3.50;;
73120;SDS011;61307;49.628;-1.624;2023-08-24T13:21:51;9.25;;;3.45;;
73120;SDS011;61307;49.628;-1.624;2023-08-24T13:24:18;10.15;;;3.38;;
73120;SDS011;61307;49.628;-1.624;2023-08-24T13:26:47;8.95;;;2.75;;
73120;SDS011;61307;49.628;-1.624;2023-08-24T13:29:16;8.27;;;3.10;;
73120;SDS011;61307;49.628;-1.624;2023-08-24T13:31:43;12.18;;;3.38;;
73120;SDS011;61307;49.628;-1.624;2023-08-24T13:34:12;10.32;;;3.70;;
73120;SDS011;61307;49.628;-1.624;2023-08-24T13:36:40;8.27;;;3.47;;
73120;SDS011;61307;49.628;-1.624;2023-08-24T13:39:08;10.85;;;3.83;;
73120;SDS011;61307;49.628;-1.624;2023-08-24T13:41:38;8.18;;;3.63;;
73120;SDS011;61307;49.628;-1.624;2023-08-24T13:44:07;11.50;;;3.53;;
73120;SDS011;61307;49.628;-1.624;2023-08-24T13:46:34;11.15;;;3.78;;
73120;SDS011;61307;49.628;-1.624;2023-08-24T13:49:01;11.13;;;3.67;;
73120;SDS011;61307;49.628;-1.624;2023-08-24T13:51:31;11.35;;;3.92;;
73120;SDS011;61307;49.628;-1.624;2023-08-24T13:54:12;11.32;;;3.28;;
73120;SDS011;61307;49.628;-1.624;2023-08-24T13:56:47;6.70;;;3.13;;
73120;SDS011;61307;49.628;-1.624;2023-08-24T13:59:15;9.65;;;3.20;;
73120;SDS011;61307;49.628;-1.624;2023-08-24T14:01:50;8.10;;;3.05;;
73120;SDS011;61307;49.628;-1.624;2023-08-24T14:04:17;11.60;;;3.00;;
73120;SDS011;61307;49.628;-1.624;2023-08-24T14:06:46;10.20;;;2.88;;
73120;SDS011;61307;49.628;-1.624;2023-08-24T14:09:13;7.05;;;3.05;;
73120;SDS011;61307;49.628;-1.624;2023-08-24T14:11:40;9.57;;;2.97;;
73120;SDS011;61307;49.628;-1.624;2023-08-24T14:14:08;9.63;;;2.95;;
73120;SDS011;61307;49.628;-1.624;2023-08-24T14:16:36;12.02;;;3.35;;
73120;SDS011;61307;49.628;-1.624;2023-08-24T14:19:04;20.45;;;3.53;;
73120;SDS011;61307;49.628;-1.624;2023-08-24T14:21:31;10.25;;;3.03;;
73120;SDS011;61307;49.628;-1.624;2023-08-24T14:24:01;14.63;;;3.72;;
73120;SDS011;61307;49.628;-1.624;2023-08-24T14:26:29;13.98;;;3.25;;
73120;SDS011;61307;49.628;-1.624;2023-08-24T14:29:01;12.13;;;3.10;;
73120;SDS011;61307;49.628;-1.624;2023-08-24T14:31:28;13.73;;;3.45;;
73120;SDS011;61307;49.628;-1.624;2023-08-24T14:33:56;10.60;;;2.85;;
73120;SDS011;61307;49.628;-1.624;2023-08-24T14:36:23;8.43;;;3.83;;
73120;SDS011;61307;49.628;-1.624;2023-08-24T14:38:51;7.47;;;3.22;;